METAR AND TAF INFORMATION
METAR FOR HESH
ADDS - METARS form results

(0616 UTC 27 April 2018)
Data provider http://aviationweather.gov/adds/metars/
 
Forecast for: HESH (SHARM EL SHEIKHI, EG)
Text: TAF HESH 270500Z 2706/2812 02015KT CAVOK
Forecast period: 0600 UTC 27 April 2018 to 1200 UTC 28 April 2018
Forecast type: FROM: standard forecast or significant change
Winds: from the NNE (20 degrees) at 17 MPH (15 knots; 7.8 m/s)
Visibility: 6 or more miles (10+ km)
Clouds: not forecast
Weather: NSW  (no significant weather)
Forecast for: HESH (SHARM EL SHEIKHI, EG)
Text: TAF HESH 270500Z 2706/2812 02015KT CAVOK
Forecast period: 0600 UTC 27 April 2018 to 1200 UTC 28 April 2018
Forecast type: FROM: standard forecast or significant change
Winds: from the NNE (20 degrees) at 17 MPH (15 knots; 7.8 m/s)
Visibility: 6 or more miles (10+ km)
Clouds: not forecast
Weather: NSW  (no significant weather)

 AIRPORT MAP

 RUNWAY INFORMATION
Runway 04L Runway length 10108 ft Runway width 148 ft
Runway elevation 134 ft Runway displaced threshold 0 ft Runway heading 43
Runway 22R Runway length 10108 ft Runway width 148 ft
Runway elevation 119 ft Runway displaced threshold 0 ft Runway heading 223
Runway 04R Runway length 10108 ft Runway width 148 ft
Runway elevation 114 ft Runway displaced threshold 0 ft Runway heading 43
Runway 22L Runway length 10108 ft Runway width 148 ft
Runway elevation 117 ft Runway displaced threshold 0 ft Runway heading 223

 AIRPORT FREQUENCIES
Type APP Name RADAR Frequency 121.1 MHZ
Type GND Name GND Frequency 121.9 MHZ
Type RDO Name RDO Frequency 317.5 MHZ
Type TWR Name TWR Frequency 118.9 MHZ

 AIRPORT NEAR NAVIGATION AIDS
Type VOR-DME Name Sharm El Sheikh Frequency 114200 KHZ
Type NDB Name Sharm El Sheikh Frequency 335 KHZ



Powered by Virtual Airlines Manager [v2.6.2]